Time;durP1;ratioP1;P1;durP2;ratioP2;P2;SDS_P1;SDS_P2;PMS_P1;PMS_P2;Temp;Humidity;BMP_temperature;BMP_pressure;BME280_temperature;BME280_humidity;BME280_pressure;Samples;Min_cycle;Max_cycle;Signal;HPM_P1;HPM_P2
2021/08/24 00:01:56;;;;;;;;;;;;;;;25.74;49.06;100129.34;4378780;32;33791;-85
2021/08/24 00:04:24;;;;;;;;;;;;;;;26.14;47.79;100117.78;4366513;32;33354;-86
2021/08/24 00:06:52;;;;;;;;;;;;;;;25.52;49.27;100110.88;4366106;32;34873;-86
2021/08/24 00:09:19;;;;;;;;;;;;;;;24.64;51.66;100119.25;4378773;32;33355;-85
2021/08/24 00:11:48;;;;;;;;;;;;;;;25.68;48.95;100114.72;4378982;32;33142;-86
2021/08/24 00:14:16;;;;;;;;;;;;;;;25.66;48.67;100108.69;4354732;32;34307;-85
2021/08/24 00:16:44;;;;;;;;;;;;;;;24.58;51.89;100117.88;4354914;32;35280;-86
2021/08/24 00:19:12;;;;;;;;;;;;;;;25.11;50.22;100108.16;4354511;32;34774;-86
2021/08/24 00:21:40;;;;;;;;;;;;;;;25.58;48.91;100105.84;4366210;32;32047;-86
2021/08/24 00:24:09;;;;;;;;;;;;;;;25.63;48.54;100108.97;4355696;32;34226;-85
2021/08/24 00:26:37;;;;;;;;;;;;;;;25.92;47.58;100112.66;4366898;32;34212;-86
2021/08/24 00:29:05;;;;;;;;;;;;;;;26.41;46.21;100102.06;4353859;32;33421;-85
2021/08/24 00:31:33;;;;;;;;;;;;;;;25.86;47.48;100108.75;4366946;32;33664;-86
2021/08/24 00:34:02;;;;;;;;;;;;;;;26.00;46.89;100104.81;4367524;32;34244;-85
2021/08/24 00:36:29;;;;;;;;;;;;;;;25.73;47.59;100097.44;4367811;32;33926;-86
2021/08/24 00:38:58;;;;;;;;;;;;;;;25.93;47.05;100115.19;4366815;32;34854;-85
2021/08/24 00:41:26;;;;;;;;;;;;;;;25.71;47.46;100110.94;4367545;32;32597;-86
2021/08/24 00:43:54;;;;;;;;;;;;;;;25.65;47.49;100111.50;4386117;32;34109;-86
2021/08/24 00:46:33;;;;;;;;;;;;;;;25.90;46.67;100109.28;4373432;32;34101;-87
2021/08/24 00:49:03;;;;;;;;;;;;;;;25.79;47.12;100104.91;4366673;32;35002;-85
2021/08/24 00:51:32;;;;;;;;;;;;;;;25.87;46.88;100109.56;4366760;32;33259;-85
2021/08/24 00:54:00;;;;;;;;;;;;;;;25.62;47.60;100107.28;4353978;32;33127;-86
2021/08/24 00:56:29;;;;;;;;;;;;;;;25.64;47.20;100110.63;4366925;32;33955;-85
2021/08/24 00:58:57;;;;;;;;;;;;;;;25.91;46.63;100108.31;4354005;32;34232;-86
2021/08/24 01:01:25;;;;;;;;;;;;;;;26.28;45.64;100108.50;4391429;32;33982;-85
2021/08/24 01:03:53;;;;;;;;;;;;;;;25.39;47.82;100116.44;4366704;32;33061;-86
2021/08/24 01:06:21;;;;;;;;;;;;;;;25.67;46.98;100109.50;4363557;32;33958;-86
2021/08/24 01:09:07;;;;;;;;;;;;;;;25.44;47.81;100107.06;4378924;32;33469;-85
2021/08/24 01:11:59;;;;;;;;;;;;;;;25.90;46.52;100107.47;4354081;32;32579;-85
2021/08/24 01:14:37;;;;;;;;;;;;;;;25.70;46.57;100108.41;4358265;32;33422;-85
2021/08/24 01:17:04;;;;;;;;;;;;;;;25.86;46.18;100107.88;4359692;32;33494;-86
2021/08/24 01:19:51;;;;;;;;;;;;;;;25.63;46.81;100108.09;4376584;32;33831;-86
2021/08/24 01:22:25;;;;;;;;;;;;;;;25.71;46.43;100102.09;4387929;32;33757;-85
2021/08/24 01:24:58;;;;;;;;;;;;;;;24.95;48.06;100104.13;4362841;32;33589;-85
2021/08/24 01:27:33;;;;;;;;;;;;;;;24.56;49.08;100108.31;4372405;32;34923;-86
2021/08/24 01:30:20;;;;;;;;;;;;;;;24.71;48.63;100114.22;4390361;32;34606;-85
2021/08/24 01:33:01;;;;;;;;;;;;;;;25.23;47.24;100108.91;4377383;32;33409;-85
2021/08/24 01:35:43;;;;;;;;;;;;;;;25.31;47.08;100109.09;4378240;32;33600;-85
2021/08/24 01:38:28;;;;;;;;;;;;;;;25.42;46.69;100108.16;4365622;32;33369;-85
2021/08/24 01:41:05;;;;;;;;;;;;;;;24.55;48.32;100109.31;4365606;32;34139;-85
2021/08/24 01:43:37;;;;;;;;;;;;;;;24.28;49.33;100102.66;4366164;32;34096;-85
2021/08/24 01:46:23;;;;;;;;;;;;;;;24.12;49.45;100103.94;4364977;32;33113;-85
2021/08/24 01:48:53;;;;;;;;;;;;;;;24.46;48.69;100105.59;4390891;32;34020;-85
2021/08/24 01:51:22;;;;;;;;;;;;;;;25.04;47.10;100099.00;4378428;32;34283;-86
2021/08/24 01:53:54;;;;;;;;;;;;;;;24.94;47.21;100097.13;4378464;32;33786;-85
2021/08/24 01:56:23;;;;;;;;;;;;;;;24.15;48.89;100094.84;4353528;32;34770;-85
2021/08/24 01:59:14;;;;;;;;;;;;;;;24.87;47.27;100100.44;4365570;32;33600;-85
2021/08/24 02:01:45;;;;;;;;;;;;;;;24.80;47.15;100100.12;4372132;32;33753;-86
2021/08/24 02:04:27;;;;;;;;;;;;;;;25.10;46.47;100098.47;4366468;32;33383;-86
2021/08/24 02:06:55;;;;;;;;;;;;;;;25.21;46.10;100101.06;4366069;32;34374;-85
2021/08/24 02:09:43;;;;;;;;;;;;;;;25.07;46.34;100098.72;4366370;32;34344;-86
2021/08/24 02:12:11;;;;;;;;;;;;;;;25.58;45.16;100091.66;4390203;32;35525;-85
2021/08/24 02:14:40;;;;;;;;;;;;;;;25.41;45.56;100087.81;4365983;32;33890;-85
2021/08/24 02:17:08;;;;;;;;;;;;;;;25.16;45.97;100081.94;4365407;32;33279;-85
2021/08/24 02:19:38;;;;;;;;;;;;;;;25.09;45.98;100086.09;4378429;32;34108;-86
2021/08/24 02:22:29;;;;;;;;;;;;;;;25.39;45.27;100089.78;4365029;32;32788;-86
2021/08/24 02:25:07;;;;;;;;;;;;;;;25.27;45.36;100089.84;4365738;32;32357;-85
2021/08/24 02:27:52;;;;;;;;;;;;;;;25.59;44.38;100086.19;4379973;32;34449;-86
2021/08/24 02:30:21;;;;;;;;;;;;;;;25.67;44.31;100096.19;4353133;32;35182;-85
2021/08/24 02:32:50;;;;;;;;;;;;;;;25.57;44.48;100096.16;4365725;32;34506;-85
2021/08/24 02:35:32;;;;;;;;;;;;;;;25.38;44.80;100096.94;4365969;32;33540;-85
2021/08/24 02:38:07;;;;;;;;;;;;;;;25.12;45.40;100085.84;4365822;32;35126;-86
2021/08/24 02:40:38;;;;;;;;;;;;;;;25.07;45.38;100096.06;4364988;32;35386;-85
2021/08/24 02:43:15;;;;;;;;;;;;;;;24.66;46.23;100083.50;4376977;32;34726;-85
2021/08/24 02:45:51;;;;;;;;;;;;;;;25.02;45.47;100083.12;4351689;32;35180;-85
2021/08/24 02:48:19;;;;;;;;;;;;;;;25.23;45.05;100076.91;4352310;32;33896;-86
2021/08/24 02:50:46;;;;;;;;;;;;;;;25.13;45.16;100083.06;4377277;32;35088;-86
2021/08/24 02:53:14;;;;;;;;;;;;;;;24.74;46.29;100088.16;4364851;32;33414;-85
2021/08/24 02:55:42;;;;;;;;;;;;;;;24.90;45.83;100078.84;4352431;32;33713;-86
2021/08/24 02:58:09;;;;;;;;;;;;;;;24.46;47.04;100081.63;4352968;32;34510;-86
2021/08/24 03:00:37;;;;;;;;;;;;;;;24.53;46.77;100080.16;4366545;32;35052;-85
2021/08/24 03:03:05;;;;;;;;;;;;;;;24.84;46.12;100077.56;4366865;32;34977;-86
2021/08/24 03:05:33;;;;;;;;;;;;;;;24.59;46.43;100079.62;4366364;32;34672;-85
2021/08/24 03:08:01;;;;;;;;;;;;;;;23.45;49.32;100078.28;4367065;32;34243;-85
2021/08/24 03:10:29;;;;;;;;;;;;;;;22.32;52.38;100082.41;4354245;32;35113;-85
2021/08/24 03:12:57;;;;;;;;;;;;;;;23.51;49.11;100078.63;4367060;32;34296;-85
2021/08/24 03:15:28;;;;;;;;;;;;;;;24.31;47.09;100083.75;4366660;32;35059;-85
2021/08/24 03:17:58;;;;;;;;;;;;;;;23.82;48.39;100080.63;4354454;32;33621;-86
2021/08/24 03:20:28;;;;;;;;;;;;;;;23.88;48.32;100082.81;4354058;32;35052;-85
2021/08/24 03:22:56;;;;;;;;;;;;;;;23.83;48.43;100085.81;4354231;32;33616;-85
2021/08/24 03:25:24;;;;;;;;;;;;;;;23.79;48.48;100084.37;4354110;32;32343;-85
2021/08/24 03:27:52;;;;;;;;;;;;;;;24.07;47.80;100086.66;4354504;32;32748;-86
2021/08/24 03:30:21;;;;;;;;;;;;;;;24.19;47.38;100085.63;4367507;32;35220;-85
2021/08/24 03:32:49;;;;;;;;;;;;;;;22.17;52.56;100100.28;4379813;32;34955;-86
2021/08/24 03:35:18;;;;;;;;;;;;;;;24.04;47.61;100098.41;4367419;32;33979;-85
2021/08/24 03:37:47;;;;;;;;;;;;;;;23.41;49.29;100095.44;4367148;32;35023;-86
2021/08/24 03:40:15;;;;;;;;;;;;;;;23.98;47.65;100094.41;4354789;32;35720;-85
2021/08/24 03:42:43;;;;;;;;;;;;;;;24.45;46.47;100094.13;4367602;32;35020;-86
2021/08/24 03:45:13;;;;;;;;;;;;;;;23.71;47.96;100091.31;4354876;32;34972;-85
2021/08/24 03:47:46;;;;;;;;;;;;;;;23.42;48.57;100097.13;4380079;32;34328;-85
2021/08/24 03:50:15;;;;;;;;;;;;;;;22.52;51.29;100098.66;4366847;32;33418;-85
2021/08/24 03:52:43;;;;;;;;;;;;;;;23.41;48.88;100101.59;4354209;32;35622;-85
2021/08/24 03:55:11;;;;;;;;;;;;;;;23.98;47.38;100105.03;4376704;32;33799;-86
2021/08/24 03:57:39;;;;;;;;;;;;;;;24.20;46.73;100103.31;4366271;32;33912;-85
2021/08/24 04:00:07;;;;;;;;;;;;;;;23.79;47.88;100121.63;4379558;32;34530;-86
2021/08/24 04:02:38;;;;;;;;;;;;;;;24.26;46.59;100124.06;4379942;32;35139;-86
2021/08/24 04:05:09;;;;;;;;;;;;;;;23.89;47.37;100127.06;4368048;32;32220;-86
2021/08/24 04:07:40;;;;;;;;;;;;;;;24.32;46.22;100130.72;4368275;32;35068;-86
2021/08/24 04:10:08;;;;;;;;;;;;;;;24.54;45.69;100127.09;4366652;32;34572;-86
2021/08/24 04:12:36;;;;;;;;;;;;;;;24.76;44.97;100130.69;4379344;32;34020;-86
2021/08/24 04:15:06;;;;;;;;;;;;;;;24.30;46.11;100132.66;4379766;32;33534;-86
2021/08/24 04:17:34;;;;;;;;;;;;;;;24.08;46.75;100131.75;4354767;32;35251;-86
2021/08/24 04:20:03;;;;;;;;;;;;;;;24.15;46.47;100135.59;4366802;32;35490;-85
2021/08/24 04:22:30;;;;;;;;;;;;;;;24.19;46.41;100136.22;4391853;32;35778;-86
2021/08/24 04:24:58;;;;;;;;;;;;;;;24.34;45.94;100137.62;4364123;32;33217;-86
2021/08/24 04:27:26;;;;;;;;;;;;;;;24.34;45.87;100136.75;4365083;32;33425;-86
2021/08/24 04:29:54;;;;;;;;;;;;;;;24.37;45.89;100130.34;4366945;32;36388;-86
2021/08/24 04:32:23;;;;;;;;;;;;;;;24.39;45.84;100126.56;4355330;32;34447;-86
2021/08/24 04:34:51;;;;;;;;;;;;;;;24.11;46.82;100131.50;4349830;32;34492;-86
2021/08/24 04:37:19;;;;;;;;;;;;;;;24.53;45.87;100128.09;4368389;32;34648;-86
2021/08/24 04:39:47;;;;;;;;;;;;;;;24.27;46.57;100125.75;4367768;32;33640;-86
2021/08/24 04:42:15;;;;;;;;;;;;;;;24.45;46.07;100126.06;4367607;32;35151;-86
2021/08/24 04:44:43;;;;;;;;;;;;;;;24.77;45.41;100127.00;4367105;32;32607;-86
2021/08/24 04:47:11;;;;;;;;;;;;;;;24.41;46.03;100131.75;4354811;32;34515;-86
2021/08/24 04:49:38;;;;;;;;;;;;;;;24.27;46.32;100133.75;4367361;32;33833;-85
2021/08/24 04:52:06;;;;;;;;;;;;;;;22.13;52.19;100137.81;4367820;32;34056;-86
2021/08/24 04:54:35;;;;;;;;;;;;;;;23.58;48.40;100131.34;4367634;32;33358;-86
2021/08/24 04:57:04;;;;;;;;;;;;;;;23.96;47.48;100130.94;4367895;32;33376;-86
2021/08/24 04:59:32;;;;;;;;;;;;;;;22.27;51.78;100136.78;4380027;32;35281;-86
2021/08/24 05:02:00;;;;;;;;;;;;;;;21.79;53.24;100137.56;4380580;32;34250;-84
2021/08/24 05:04:28;;;;;;;;;;;;;;;22.86;50.65;100135.94;4368047;32;32189;-84
2021/08/24 05:06:55;;;;;;;;;;;;;;;22.44;51.87;100138.22;4367716;32;33675;-84
2021/08/24 05:09:23;;;;;;;;;;;;;;;23.95;47.98;100133.72;4379891;32;33275;-84
2021/08/24 05:11:51;;;;;;;;;;;;;;;24.13;47.15;100134.03;4380190;32;34877;-84
2021/08/24 05:14:27;;;;;;;;;;;;;;;23.96;47.63;100138.94;4368065;32;32415;-84
2021/08/24 05:16:55;;;;;;;;;;;;;;;24.50;46.10;100139.84;4362383;32;36160;-84
2021/08/24 05:19:23;;;;;;;;;;;;;;;24.41;46.35;100145.06;4355497;32;35113;-84
2021/08/24 05:21:50;;;;;;;;;;;;;;;24.74;45.65;100152.09;4346076;32;33917;-84
2021/08/24 05:24:18;;;;;;;;;;;;;;;24.51;46.23;100146.00;4350813;32;32262;-85
2021/08/24 05:26:46;;;;;;;;;;;;;;;24.97;45.22;100142.16;4367865;32;34482;-84
2021/08/24 05:29:16;;;;;;;;;;;;;;;24.88;45.29;100140.28;4366870;32;34626;-84
2021/08/24 05:31:45;;;;;;;;;;;;;;;24.21;47.23;100144.06;4379325;32;34119;-86
2021/08/24 05:34:13;;;;;;;;;;;;;;;24.97;45.32;100146.63;4354231;32;32597;-85
2021/08/24 05:36:44;;;;;;;;;;;;;;;25.15;44.96;100150.38;4366013;32;34040;-84
2021/08/24 05:39:11;;;;;;;;;;;;;;;25.44;44.48;100146.22;4379283;32;34998;-83
2021/08/24 05:41:39;;;;;;;;;;;;;;;25.30;44.71;100142.06;4366535;32;33194;-84
2021/08/24 05:44:07;;;;;;;;;;;;;;;25.12;45.24;100140.00;4354100;32;32410;-84
2021/08/24 05:46:35;;;;;;;;;;;;;;;24.75;46.18;100156.47;4366146;32;34334;-84
2021/08/24 05:49:03;;;;;;;;;;;;;;;24.11;47.65;100157.28;4378882;32;35048;-83
2021/08/24 05:51:32;;;;;;;;;;;;;;;25.02;45.53;100147.09;4378252;32;34420;-84
2021/08/24 05:54:01;;;;;;;;;;;;;;;25.38;44.71;100152.97;4364419;32;33504;-84
2021/08/24 05:56:30;;;;;;;;;;;;;;;25.56;44.36;100157.66;4378845;32;34382;-84
2021/08/24 05:58:58;;;;;;;;;;;;;;;25.22;45.35;100148.03;4390338;32;33647;-84
2021/08/24 06:01:27;;;;;;;;;;;;;;;25.35;44.90;100153.19;4390702;32;35271;-84
2021/08/24 06:03:56;;;;;;;;;;;;;;;25.16;45.51;100153.94;4365810;32;34404;-84
2021/08/24 06:06:28;;;;;;;;;;;;;;;24.95;46.07;100159.25;4365230;32;35466;-84
2021/08/24 06:09:02;;;;;;;;;;;;;;;25.04;46.07;100158.47;4377831;32;34944;-83
2021/08/24 06:11:31;;;;;;;;;;;;;;;25.32;45.23;100159.59;4377968;32;35045;-82
2021/08/24 06:14:00;;;;;;;;;;;;;;;25.67;44.02;100158.41;4377725;32;33426;-84
2021/08/24 06:16:27;;;;;;;;;;;;;;;25.77;43.88;100162.94;4365909;32;33852;-84
2021/08/24 06:18:55;;;;;;;;;;;;;;;25.40;44.60;100156.31;4392099;32;34495;-84
2021/08/24 06:21:23;;;;;;;;;;;;;;;25.41;44.51;100155.34;4363253;32;34231;-85
2021/08/24 06:23:51;;;;;;;;;;;;;;;25.62;44.37;100165.09;4366226;32;33814;-85
2021/08/24 06:26:18;;;;;;;;;;;;;;;25.60;44.70;100167.06;4377788;32;34280;-84
2021/08/24 06:28:49;;;;;;;;;;;;;;;25.61;44.66;100163.44;4378099;32;35348;-84
2021/08/24 06:31:17;;;;;;;;;;;;;;;25.86;44.13;100162.13;4365394;32;34532;-84
2021/08/24 06:33:46;;;;;;;;;;;;;;;25.71;44.22;100174.12;4379817;32;34000;-84
2021/08/24 06:36:14;;;;;;;;;;;;;;;25.86;43.66;100169.25;4367705;32;35129;-84
2021/08/24 06:38:42;;;;;;;;;;;;;;;26.47;42.42;100163.78;4367267;32;35297;-84
2021/08/24 06:41:10;;;;;;;;;;;;;;;25.81;43.95;100164.34;4379383;32;33848;-84
2021/08/24 06:43:38;;;;;;;;;;;;;;;25.61;44.41;100169.59;4367553;32;33520;-84
2021/08/24 06:46:06;;;;;;;;;;;;;;;26.00;43.35;100168.88;4378894;32;34227;-85
2021/08/24 06:48:33;;;;;;;;;;;;;;;26.01;43.09;100162.56;4378853;32;35287;-85
2021/08/24 06:51:02;;;;;;;;;;;;;;;26.10;43.21;100171.59;4354984;32;33040;-84
2021/08/24 06:53:29;;;;;;;;;;;;;;;26.40;42.54;100170.66;4367535;32;31955;-84
2021/08/24 06:55:57;;;;;;;;;;;;;;;26.04;43.61;100173.00;4379984;32;34348;-86
2021/08/24 06:58:24;;;;;;;;;;;;;;;25.95;43.80;100166.63;4378991;32;33937;-85
2021/08/24 07:00:52;;;;;;;;;;;;;;;26.42;42.99;100181.19;4367288;32;34341;-83
2021/08/24 07:03:20;;;;;;;;;;;;;;;26.43;43.12;100166.84;4367051;32;32002;-84
2021/08/24 07:05:49;;;;;;;;;;;;;;;26.44;43.14;100174.72;4367005;32;32987;-85
2021/08/24 07:08:17;;;;;;;;;;;;;;;26.04;44.03;100173.00;4367214;32;34146;-84
2021/08/24 07:10:47;;;;;;;;;;;;;;;26.21;43.75;100176.00;4379543;32;35183;-84
2021/08/24 07:13:21;;;;;;;;;;;;;;;26.24;43.81;100173.03;4380787;32;33369;-84
2021/08/24 07:15:48;;;;;;;;;;;;;;;26.69;42.89;100172.47;4379754;32;34283;-84
2021/08/24 07:18:16;;;;;;;;;;;;;;;26.89;42.50;100170.66;4379449;32;33949;-84
2021/08/24 07:20:48;;;;;;;;;;;;;;;27.17;41.67;100176.94;4366984;32;34130;-84
2021/08/24 07:23:15;;;;;;;;;;;;;;;26.91;42.06;100173.19;4366511;32;32935;-85
2021/08/24 07:25:43;;;;;;;;;;;;;;;27.55;40.81;100179.69;4362524;32;34581;-85
2021/08/24 07:28:11;;;;;;;;;;;;;;;27.41;41.40;100180.97;4391280;32;34831;-86
2021/08/24 07:30:43;;;;;;;;;;;;;;;27.32;41.31;100188.03;4355859;32;34312;-85
2021/08/24 07:33:12;;;;;;;;;;;;;;;27.95;40.03;100178.50;4403909;32;33271;-86
2021/08/24 07:35:40;;;;;;;;;;;;;;;27.25;41.53;100178.06;4406664;32;34515;-86
2021/08/24 07:38:08;;;;;;;;;;;;;;;27.90;40.27;100182.63;4381243;32;34516;-86
2021/08/24 07:40:36;;;;;;;;;;;;;;;28.01;39.91;100185.09;4381423;32;33173;-86
2021/08/24 07:43:03;;;;;;;;;;;;;;;28.30;39.45;100176.88;4406020;32;33016;-85
2021/08/24 07:45:30;;;;;;;;;;;;;;;27.41;40.94;100190.84;4392509;32;33595;-85
2021/08/24 07:47:59;;;;;;;;;;;;;;;27.47;40.92;100184.94;4391374;32;33081;-85
2021/08/24 07:50:26;;;;;;;;;;;;;;;28.20;39.41;100186.84;4391286;32;33007;-86
2021/08/24 07:52:55;;;;;;;;;;;;;;;27.79;39.84;100191.69;4400108;32;33673;-86
2021/08/24 07:55:23;;;;;;;;;;;;;;;28.06;39.44;100193.53;4388826;32;33467;-85
2021/08/24 07:57:51;;;;;;;;;;;;;;;28.39;39.04;100198.41;4378736;32;35750;-86
2021/08/24 08:00:19;;;;;;;;;;;;;;;28.52;38.73;100196.19;4365964;32;33341;-86
2021/08/24 08:02:51;;;;;;;;;;;;;;;28.61;38.62;100197.09;4366224;32;32549;-86
2021/08/24 08:05:19;;;;;;;;;;;;;;;28.47;38.20;100204.69;4389256;32;33596;-86
2021/08/24 08:07:47;;;;;;;;;;;;;;;28.53;37.87;100202.38;4391188;32;34608;-85
2021/08/24 08:10:15;;;;;;;;;;;;;;;28.31;38.24;100199.16;4391073;32;32714;-85
2021/08/24 08:12:43;;;;;;;;;;;;;;;28.48;38.17;100195.66;4365940;32;32909;-86
2021/08/24 08:15:11;;;;;;;;;;;;;;;28.64;37.68;100203.03;4388007;32;33738;-86
2021/08/24 08:17:39;;;;;;;;;;;;;;;28.22;38.71;100202.75;4364820;32;34526;-85
2021/08/24 08:20:08;;;;;;;;;;;;;;;28.76;37.84;100192.06;4378637;32;34269;-86
2021/08/24 08:22:37;;;;;;;;;;;;;;;28.47;37.95;100190.44;4390899;32;33330;-86
2021/08/24 08:25:06;;;;;;;;;;;;;;;28.86;36.40;100202.72;4391538;32;34360;-85
2021/08/24 08:27:34;;;;;;;;;;;;;;;28.54;36.68;100194.19;4390865;32;34062;-85
2021/08/24 08:30:05;;;;;;;;;;;;;;;29.07;36.70;100205.06;4378676;32;34154;-85
2021/08/24 08:32:35;;;;;;;;;;;;;;;28.90;36.81;100201.41;4378676;32;33564;-85
2021/08/24 08:35:02;;;;;;;;;;;;;;;29.17;36.16;100200.41;4365902;32;33961;-84
2021/08/24 08:37:30;;;;;;;;;;;;;;;29.32;36.26;100198.03;4391297;32;34261;-84
2021/08/24 08:39:57;;;;;;;;;;;;;;;28.75;37.46;100198.44;4390966;32;35427;-84
2021/08/24 08:42:40;;;;;;;;;;;;;;;29.30;36.20;100205.41;4378270;32;32967;-83
2021/08/24 08:45:08;;;;;;;;;;;;;;;29.85;34.96;100197.94;4390938;32;34116;-84
2021/08/24 08:47:49;;;;;;;;;;;;;;;29.61;35.21;100207.56;4378239;32;33828;-83
2021/08/24 08:50:35;;;;;;;;;;;;;;;29.11;36.23;100204.56;4390729;32;35142;-85
2021/08/24 08:53:12;;;;;;;;;;;;;;;29.05;36.61;100209.72;4378052;32;33566;-84
2021/08/24 08:55:44;;;;;;;;;;;;;;;29.79;35.46;100204.81;4378428;32;33267;-85
2021/08/24 08:58:12;;;;;;;;;;;;;;;29.80;35.10;100204.66;4379820;32;33091;-84
2021/08/24 09:00:40;;;;;;;;;;;;;;;29.76;35.12;100213.19;4390626;32;34336;-85
2021/08/24 09:03:14;;;;;;;;;;;;;;;29.86;34.76;100205.00;4390862;32;33375;-85
2021/08/24 09:05:42;;;;;;;;;;;;;;;29.30;35.13;100217.00;4378390;32;33081;-86
2021/08/24 09:08:10;;;;;;;;;;;;;;;30.04;34.05;100213.00;4390600;32;34289;-85
2021/08/24 09:10:48;;;;;;;;;;;;;;;29.88;34.49;100211.94;4391807;32;34205;-85
2021/08/24 09:13:24;;;;;;;;;;;;;;;29.90;34.36;100207.25;4378134;32;33483;-84
2021/08/24 09:16:04;;;;;;;;;;;;;;;30.38;33.68;100204.88;4378380;32;33864;-85
2021/08/24 09:18:47;;;;;;;;;;;;;;;29.60;34.27;100209.44;4390317;32;34274;-86
2021/08/24 09:21:17;;;;;;;;;;;;;;;30.06;32.93;100210.97;4361684;32;915886;-85
2021/08/24 09:23:44;;;;;;;;;;;;;;;29.58;34.06;100214.09;4365841;32;33429;-85
2021/08/24 09:26:15;;;;;;;;;;;;;;;29.83;33.33;100203.47;4377176;32;33091;-86
2021/08/24 09:28:43;;;;;;;;;;;;;;;30.49;32.80;100201.03;4377875;32;34078;-85
2021/08/24 09:31:12;;;;;;;;;;;;;;;30.86;31.99;100190.78;4390855;32;33854;-85
2021/08/24 09:33:40;;;;;;;;;;;;;;;31.30;31.54;100196.66;4366234;32;33583;-85
2021/08/24 09:36:08;;;;;;;;;;;;;;;31.54;30.78;100192.22;4377849;32;34176;-86
2021/08/24 09:38:50;;;;;;;;;;;;;;;31.46;30.80;100203.00;4390712;32;35275;-86
2021/08/24 09:41:24;;;;;;;;;;;;;;;31.69;30.64;100202.28;4379998;32;33118;-86
2021/08/24 09:43:54;;;;;;;;;;;;;;;31.88;30.12;100206.41;4391510;32;33894;-85
2021/08/24 09:46:25;;;;;;;;;;;;;;;31.66;30.01;100208.88;4365793;32;33449;-86
2021/08/24 09:49:03;;;;;;;;;;;;;;;32.01;29.41;100211.25;4390472;32;34484;-85
2021/08/24 09:51:37;;;;;;;;;;;;;;;31.86;29.32;100197.66;4377587;32;33620;-85
2021/08/24 09:54:20;;;;;;;;;;;;;;;32.29;29.03;100200.81;4377774;32;32827;-86
2021/08/24 09:56:51;;;;;;;;;;;;;;;32.58;28.35;100196.59;4378211;32;33399;-85
2021/08/24 09:59:25;;;;;;;;;;;;;;;32.29;29.46;100207.03;4378347;32;34460;-85
2021/08/24 10:01:54;;;;;;;;;;;;;;;32.09;29.92;100203.09;4389623;32;33732;-85
2021/08/24 10:04:23;;;;;;;;;;;;;;;31.16;31.11;100208.09;4378159;32;33936;-85
2021/08/24 10:06:57;;;;;;;;;;;;;;;30.88;31.46;100208.44;4394375;32;35791;-85
2021/08/24 10:09:29;;;;;;;;;;;;;;;30.41;32.18;100207.22;4379935;32;33616;-85
2021/08/24 10:12:13;;;;;;;;;;;;;;;30.96;31.34;100207.59;4380728;32;34223;-86
2021/08/24 10:14:45;;;;;;;;;;;;;;;31.08;31.41;100211.66;4393404;32;33013;-85
2021/08/24 10:17:14;;;;;;;;;;;;;;;31.53;30.38;100209.38;4393226;32;34106;-85
2021/08/24 10:19:43;;;;;;;;;;;;;;;31.62;29.94;100194.06;4392703;32;34545;-85
2021/08/24 10:22:13;;;;;;;;;;;;;;;31.92;29.05;100192.41;4367185;32;34836;-86
2021/08/24 10:24:51;;;;;;;;;;;;;;;32.01;28.99;100195.06;4367294;32;34644;-86
2021/08/24 10:27:22;;;;;;;;;;;;;;;31.80;29.27;100193.81;4367549;32;33368;-85
2021/08/24 10:29:51;;;;;;;;;;;;;;;32.03;28.88;100190.31;4385030;32;33240;-85
2021/08/24 10:32:27;;;;;;;;;;;;;;;31.29;30.23;100191.44;4393942;32;34740;-85
2021/08/24 10:34:55;;;;;;;;;;;;;;;31.82;29.37;100191.78;4392283;32;34547;-84
2021/08/24 10:37:23;;;;;;;;;;;;;;;32.07;28.81;100187.13;4391953;32;34436;-86
2021/08/24 10:39:52;;;;;;;;;;;;;;;31.88;28.66;100195.63;4392220;32;35209;-85
2021/08/24 10:42:27;;;;;;;;;;;;;;;31.96;28.37;100185.66;4380903;32;34790;-86
2021/08/24 10:44:55;;;;;;;;;;;;;;;31.55;29.10;100187.66;4379056;32;31988;-86
2021/08/24 10:47:34;;;;;;;;;;;;;;;31.75;28.97;100174.62;4393656;32;35320;-85
2021/08/24 10:50:02;;;;;;;;;;;;;;;31.73;29.38;100184.75;4392464;32;34661;-86
2021/08/24 10:52:37;;;;;;;;;;;;;;;31.90;29.02;100189.06;4392504;32;34309;-85
2021/08/24 10:55:18;;;;;;;;;;;;;;;31.72;29.21;100181.22;4394182;32;32873;-85
2021/08/24 10:57:55;;;;;;;;;;;;;;;31.81;29.00;100182.84;4391741;32;34506;-84
2021/08/24 11:00:42;;;;;;;;;;;;;;;31.80;28.71;100191.97;4367085;32;33972;-86
2021/08/24 11:03:16;;;;;;;;;;;;;;;31.35;29.15;100190.72;4391867;32;33307;-86
2021/08/24 11:05:45;;;;;;;;;;;;;;;30.76;29.88;100185.59;4392705;32;32933;-85
2021/08/24 11:08:31;;;;;;;;;;;;;;;29.72;31.52;100201.09;4393757;32;34118;-85
2021/08/24 11:11:00;;;;;;;;;;;;;;;30.56;30.41;100187.78;4391988;32;34807;-85
2021/08/24 11:13:48;;;;;;;;;;;;;;;30.51;30.92;100199.00;4378957;32;33556;-84
2021/08/24 11:16:26;;;;;;;;;;;;;;;30.75;30.69;100195.47;4379251;32;32333;-86
2021/08/24 11:19:00;;;;;;;;;;;;;;;30.80;30.64;100192.31;4391196;32;34005;-86
2021/08/24 11:21:41;;;;;;;;;;;;;;;30.95;30.33;100185.25;4379178;32;33697;-85
2021/08/24 11:24:11;;;;;;;;;;;;;;;31.25;29.83;100190.09;4378923;32;34699;-87
2021/08/24 11:26:46;;;;;;;;;;;;;;;30.91;29.97;100193.81;4379559;32;32380;-87
2021/08/24 11:29:13;;;;;;;;;;;;;;;30.89;30.03;100191.28;4385191;32;34821;-86
2021/08/24 11:31:46;;;;;;;;;;;;;;;30.44;30.54;100187.22;4391725;32;34263;-87
2021/08/24 11:34:19;;;;;;;;;;;;;;;31.31;29.30;100179.50;4391513;32;34791;-87
2021/08/24 11:36:47;;;;;;;;;;;;;;;30.51;30.04;100188.25;4379475;32;32757;-86
2021/08/24 11:39:18;;;;;;;;;;;;;;;30.83;29.93;100186.56;4392702;32;34509;-87
2021/08/24 11:41:47;;;;;;;;;;;;;;;30.22;30.61;100194.06;4391586;32;33972;-87
2021/08/24 11:44:16;;;;;;;;;;;;;;;30.42;30.31;100181.16;4375971;32;33071;-86
2021/08/24 11:46:49;;;;;;;;;;;;;;;30.85;30.18;100173.81;4391278;32;34256;-87
2021/08/24 11:49:16;;;;;;;;;;;;;;;31.26;28.86;100183.69;4388042;32;34353;-87
2021/08/24 11:51:46;;;;;;;;;;;;;;;31.14;29.28;100176.00;4390230;32;33757;-87
2021/08/24 11:54:14;;;;;;;;;;;;;;;31.52;29.53;100180.75;4378301;32;34313;-85
2021/08/24 11:57:00;;;;;;;;;;;;;;;31.75;29.36;100185.41;4377984;32;32538;-85
2021/08/24 11:59:30;;;;;;;;;;;;;;;31.75;29.52;100180.03;4390501;32;34385;-87
2021/08/24 12:01:58;;;;;;;;;;;;;;;32.08;28.77;100177.16;4379996;32;33468;-87
2021/08/24 12:04:28;;;;;;;;;;;;;;;32.21;28.36;100176.63;4378086;32;35227;-86
2021/08/24 12:06:57;;;;;;;;;;;;;;;32.70;28.01;100181.62;4391125;32;32198;-88
2021/08/24 12:09:44;;;;;;;;;;;;;;;32.66;27.81;100174.94;4391050;32;34819;-87
2021/08/24 12:12:32;;;;;;;;;;;;;;;33.02;27.01;100184.25;4390793;32;35088;-88
2021/08/24 12:15:07;;;;;;;;;;;;;;;33.11;26.36;100175.87;4369816;32;33697;-87
2021/08/24 12:17:35;;;;;;;;;;;;;;;32.57;27.08;100182.25;4390853;32;33516;-88
2021/08/24 12:20:05;;;;;;;;;;;;;;;32.36;26.74;100176.69;4377869;32;33565;-85
2021/08/24 12:22:43;;;;;;;;;;;;;;;32.55;26.52;100173.50;4390679;32;33696;-87
2021/08/24 12:25:27;;;;;;;;;;;;;;;33.02;26.13;100178.88;4390986;32;33778;-88
2021/08/24 12:27:59;;;;;;;;;;;;;;;33.17;25.66;100184.28;4379430;32;34419;-87
2021/08/24 12:30:31;;;;;;;;;;;;;;;32.44;26.08;100184.69;4388437;32;33864;-87
2021/08/24 12:33:01;;;;;;;;;;;;;;;33.22;25.36;100187.25;4387959;32;34884;-87
2021/08/24 12:35:28;;;;;;;;;;;;;;;34.26;23.86;100179.06;4381778;32;34305;-87
2021/08/24 12:37:57;;;;;;;;;;;;;;;33.51;24.91;100186.44;4375671;32;31606;-87
2021/08/24 12:40:24;;;;;;;;;;;;;;;32.12;26.61;100179.34;4376787;32;33786;-88
2021/08/24 12:43:01;;;;;;;;;;;;;;;33.12;25.41;100182.13;4389860;32;33870;-87
2021/08/24 12:45:30;;;;;;;;;;;;;;;32.84;26.19;100180.03;4391292;32;34344;-86
2021/08/24 12:48:10;;;;;;;;;;;;;;;33.21;25.17;100174.78;4365476;32;34462;-86
2021/08/24 12:50:37;;;;;;;;;;;;;;;33.17;26.16;100174.31;4376394;32;34028;-85
2021/08/24 12:53:41;;;;;;;;;;;;;;;33.47;25.75;100174.34;4390614;32;33870;-87
2021/08/24 12:56:09;;;;;;;;;;;;;;;33.19;25.55;100176.81;4332075;33;33970;-87